CA-0654 weather

CLOSED St. Lina Airport
St. Lina, Alberta, Canada

Public forecast

Using degrees Celsius for public forecast. Weather courtesy of forecast.io.

METAR (pilot weather report)

Closest report is CFB Cold Lake, 43.1 nm (79.9 km) E. Retrieved 2019/04/22 23:00 UTC (60 minutes ago):

CYOD 222300Z 19009G16KT 15SM BKN110 BKN150 OVC250 19/M08 A2972 RMK AC5AC2CI1 SLP075

TAF (pilot weather forecast)

Closest forecast is CFB Cold Lake, 43.1 nm (79.9 km) E. Retrieved 2019/04/22 21:40 UTC (2 hours ago):

TAF CYOD 222036Z 2221/2318 20015KT P6SM BKN250 FM230000 20012KT P6SM OVC100 BECMG 2300/2302 22005KT FM230600 28010KT P6SM FEW100 RMK NXT FCST BY 230000Z